AirNav   Air Wisconsin Up To $57,000 Bonus
 
 1514 users online  

63M Hermann Municipal Airport
Hermann, Missouri, USA

GOING TO HERMANN?


FAA INFORMATION EFFECTIVE 22 APRIL 2021

Location

FAA Identifier: 63M
Lat/Long: 38-42-18.6050N 091-29-25.9950W
38-42.310083N 091-29.433250W
38.7051681,-91.4905542
(estimated)
Elevation: 507.5 ft. / 154.7 m (surveyed)
Variation: 03E (1985)
From city: 3 miles NW of HERMANN, MO
Time zone: UTC -5 (UTC -6 during Standard Time)
Zip code: 65041

Airport Operations

Airport use: Open to the public
Activation date: 10/1998
Control tower: no
ARTCC: KANSAS CITY CENTER
FSS: SAINT LOUIS FLIGHT SERVICE STATION
NOTAMs facility: STL (NOTAM-D service available)
Attendance: UNATNDD
Wind indicator: lighted
Segmented circle: yes
Lights: ACTIVATE MIRL RY 07/25, PAPI RY 25 - CTAF.
Beacon: white-green (lighted land airport)
Operates sunset to sunrise.

Airport Communications

CTAF: 122.9

Nearby radio navigation aids

VOR radial/distance  VOR name  Freq  Var
FTZr267/24.3FORISTELL VORTAC110.8005E
VIHr011/34.6VICHY VOR/DME117.7006E
COUr101/34.6COLUMBIA VOR/DME110.2000E
HLVr123/38.6HALLSVILLE VORTAC114.2006E

Airport Services

Parking: hangars and tiedowns
Powerplant service: NONE
Bottled oxygen: NONE
Bulk oxygen: NONE

Runway Information

Runway 7/25

Dimensions: 3198 x 50 ft. / 975 x 15 m
Surface: asphalt, in excellent condition
Runway edge lights: medium intensity
RUNWAY 7  RUNWAY 25
Latitude: 38-42.208833N38-42.411333N
Longitude: 091-29.743500W091-29.123000W
Elevation: 506.5 ft.507.5 ft.
Traffic pattern: leftright
Markings: nonprecision, in good conditionnonprecision, in good condition
Visual slope indicator: 2-light PAPI on left (3.00 degrees glide path)
Touchdown point: yes, no lightsyes, no lights

Airport Ownership and Management from official FAA records

Ownership: Publicly-owned
Owner: CITY OF HERMANN
1902 JEFFERSON STREET
HERMANN, MO 65041
Phone 573-486-5400
Manager: GARY GEISLER
228 E. 1ST STREET
HERMANN, MO 65041
Phone 573-486-3370

Airport Operational Statistics

Aircraft based on the field: 6
Single engine airplanes: 6
    
Aircraft operations: avg 26/week *
59% local general aviation
41% transient general aviation
* for 12-month period ending 31 December 2017

Additional Remarks

BIRDS ON AND IN VICINITY OF ARPT.
BE ALERT TO LARGE AGRICULTURAL IRRIGATION SYSTEM DURING SPRING AND SUMMER MONTHS, APRX 300-400 FT FM RY 25 END.
PWR TRANSMISSION LINES AND CATENARY SUPPORT STRUCTURE 2600 FT FM RWY 25 THLD ON EXTENDED RWY CNTRLN.
USE CTN OPRG ON TWY AND APN - PAVEMENT SEVERELY DTRTD - FOD HAZ.
FOR CD CTC MIZZOU APCH AT 417-868-5620/5619.

Instrument Procedures

There are no published instrument procedures at 63M.

Some nearby airports with instrument procedures:

KFYG - Washington Regional Airport (24 nm E)
KFTT - Elton Hensley Memorial Airport (25 nm W)
KMYJ - Mexico Memorial Airport (31 nm NW)
KJEF - Jefferson City Memorial Airport (32 nm W)
KUUV - Sullivan Regional Airport (32 nm SE)
 
Loc | Ops | Rwys | IFR | FBO | Links
Com | Nav | Svcs | Stats | Notes
Area around 63M (Hermann Municipal Airport)
 
Road maps at: MapQuest Bing Google
 
Aerial photo
WARNING: Photo may not be current or correct
Aerial photo of 63M (Hermann Municipal Airport)
Photo by PCP

Do you have a better or more recent aerial photo of Hermann Municipal Airport that you would like to share? If so, please send us your photo.

 
Sectional chart

 
Airport distance calculator
Flying to Hermann Municipal Airport? Find the distance to fly.

From to 63M

Sunrise and sunset
Times for 05-May-2021
 Local
(UTC-5)
 Zulu
(UTC)
Morning civil twilight05:3610:36
Sunrise06:0511:05
Sunset20:0101:01
Evening civil twilight20:3001:30

Current date and time
Zulu (UTC)  05-May-2021 21:00:57
Local (UTC-5)  05-May-2021 16:00:57
 
METAR
KFYG 
24nm E 
052035Z AUTO 33006KT 10SM CLR 19/02 A3012 RMK AO2
KMYJ 
31nm NW 
052055Z AUTO 33006KT 10SM CLR 18/02 A3014 RMK AO2
KJEF 
32nm W 
051953Z 28005KT 10SM CLR A3015
KCOU 
35nm W 
051954Z 00000KT 10SM CLR 21/04 A3015 RMK AO2 SLP207 T02110044
KVIH 
37nm S 
052053Z AUTO 35008KT 10SM CLR 19/02 A3014 RMK AO2 SLP203 T01940017 56014
KSUS 
40nm E 
051954Z VRB03KT 10SM CLR 19/M01 A3013 RMK AO2 SLP202 T01891006
TAF
KCOU 
35nm W 
051738Z 0518/0618 34006KT P6SM SKC FM060000 VRB04KT P6SM BKN120 FM061100 25008KT P6SM VCSH SCT030 BKN080 FM061400 30012G18KT P6SM VCSH BKN030
KSUS 
40nm E 
051738Z 0518/0618 34006KT P6SM SCT060 FM060100 VRB03KT P6SM BKN120 FM061400 25008KT P6SM VCSH SCT030 OVC080 FM061700 30012G19KT P6SM VCSH BKN035
NOTAMs
Click for the latest NOTAMs
NOTAMs are issued by the DoD/FAA and will open in a separate window not controlled by AirNav.

 

 
 

Would you like to see your business listed on this page?

 If your business provides an interesting product or service to pilots, flight crews, aircraft, or users of the Hermann Municipal Airport, you should consider listing it here.  To start the listing process, click on the button below
 
Add a business
 

Other Pages about Hermann Municipal Airport

Update a link
 
Copyright © AirNav, LLC. All rights reserved. Privacy Policy  Contact